Cape Fear, North Carolina
Current Conditions -  °F | °C
As of 1:53 PM on Friday 24 Oct 2014 (Local Time) from KILM Reporting Station
Clear Clear  
Wind Chill: 69°   Ceiling: Unl
Heat Index: 69°   Visibility: 10mi
Dew Point: 47°   Wind: 3mph
Humidity: 45%   Direction: 330°NNW
Pressure: 29.99"   Gusts: NA
Location:  34.2436°N, 77.9363°W
Report Text: KILM 241753Z 33003KT 10SM CLR 21/08 A2999 RMK AO2 SLP156 T02060083 10211 20089 58020
Loading
Personal Weather Stations






























Interactive Weather Map
Tropical Storm Tracking
New forecast layout! Learn more

10-Day Weather Forecast

Advertisements
Track Severe Weather on mobile